Time;durP1;ratioP1;P1;durP2;ratioP2;P2;SDS_P1;SDS_P2;PMS_P1;PMS_P2;Temp;Humidity;BMP_temperature;BMP_pressure;BME280_temperature;BME280_humidity;BME280_pressure;Samples;Min_cycle;Max_cycle;Signal;HPM_P1;HPM_P2
2021/04/03 00:00:14;;;;;;;12.90;5.60;;;;;;;4.60;62.94;100113.47;5014113;28;20021;-61
2021/04/03 00:02:39;;;;;;;15.15;5.55;;;;;;;4.53;62.90;100111.53;5013304;28;20049;-61
2021/04/03 00:05:06;;;;;;;13.10;5.68;;;;;;;4.52;63.45;100104.56;4996370;28;20481;-62
2021/04/03 00:07:31;;;;;;;10.13;5.07;;;;;;;4.47;63.54;100106.94;5013196;28;20060;-62
2021/04/03 00:09:57;;;;;;;12.25;6.10;;;;;;;4.44;64.72;100107.31;5014214;28;20042;-62
2021/04/03 00:12:22;;;;;;;10.35;5.22;;;;;;;4.45;64.80;100108.97;5012467;28;20038;-61
2021/04/03 00:14:48;;;;;;;12.90;5.38;;;;;;;4.50;65.07;100101.28;5014219;28;20026;-61
2021/04/03 00:17:13;;;;;;;13.75;5.68;;;;;;;4.44;64.16;100101.16;5013846;28;20499;-62
2021/04/03 00:19:38;;;;;;;13.88;5.28;;;;;;;4.52;64.92;100098.44;5014097;28;20026;-62
2021/04/03 00:22:04;;;;;;;11.65;5.43;;;;;;;4.45;64.09;100094.88;5013551;28;20034;-62
2021/04/03 00:24:30;;;;;;;12.85;5.82;;;;;;;4.45;66.14;100095.69;5014183;28;20049;-66
2021/04/03 00:26:56;;;;;;;11.98;5.72;;;;;;;4.45;64.23;100103.66;5012253;28;20485;-63
2021/04/03 00:29:21;;;;;;;14.55;6.30;;;;;;;4.52;67.00;100088.66;5014056;28;20029;-63
2021/04/03 00:31:46;;;;;;;12.43;5.57;;;;;;;4.51;64.44;100081.66;5013629;28;20049;-62
2021/04/03 00:34:12;;;;;;;16.58;6.38;;;;;;;4.40;64.66;100081.31;5013862;28;20026;-63
2021/04/03 00:36:37;;;;;;;13.13;6.50;;;;;;;4.55;64.85;100084.81;5013373;28;20042;-62
2021/04/03 00:39:03;;;;;;;11.20;5.68;;;;;;;4.47;64.48;100077.75;5012537;28;20059;-62
2021/04/03 00:41:29;;;;;;;12.57;5.85;;;;;;;4.44;65.64;100075.47;5011994;28;20512;-63
2021/04/03 00:43:54;;;;;;;11.27;6.03;;;;;;;4.48;64.95;100082.03;5012502;28;20145;-63
2021/04/03 00:46:19;;;;;;;14.18;5.97;;;;;;;4.52;65.14;100080.69;5011897;28;20515;-63
2021/04/03 00:48:46;;;;;;;14.95;6.20;;;;;;;4.52;64.96;100072.72;5013525;28;20022;-63
2021/04/03 00:51:11;;;;;;;17.08;6.18;;;;;;;4.45;64.69;100066.47;5012931;28;20046;-63
2021/04/03 00:53:37;;;;;;;18.15;6.55;;;;;;;4.42;64.87;100077.47;5013489;28;20030;-63
2021/04/03 00:56:05;;;;;;;13.13;7.15;;;;;;;4.45;65.03;100066.47;5013161;28;20058;-63
2021/04/03 00:58:31;;;;;;;11.95;6.07;;;;;;;4.39;65.03;100066.38;5012193;28;20487;-62
2021/04/03 01:00:56;;;;;;;16.65;5.93;;;;;;;4.38;64.82;100057.59;5011714;28;20038;-63
2021/04/03 01:03:23;;;;;;;11.30;6.13;;;;;;;4.36;64.95;100061.44;5012065;28;20045;-62
2021/04/03 01:05:48;;;;;;;12.73;6.28;;;;;;;4.47;66.29;100058.34;5011799;28;20053;-63
2021/04/03 01:08:14;;;;;;;12.73;5.47;;;;;;;4.46;64.81;100060.16;5012115;28;20358;-63
2021/04/03 01:10:42;;;;;;;10.95;6.13;;;;;;;4.53;65.40;100060.25;5012652;28;20045;-63
2021/04/03 01:13:36;;;;;;;14.80;5.93;;;;;;;4.39;64.98;100056.56;5013164;28;20449;-63
2021/04/03 01:16:23;;;;;;;12.43;5.65;;;;;;;4.37;65.23;100061.28;5012207;28;20092;-63
2021/04/03 01:19:30;;;;;;;10.88;5.07;;;;;;;4.45;65.36;100069.13;5013151;28;20092;-63
2021/04/03 01:22:16;;;;;;;11.27;5.72;;;;;;;4.35;65.67;100060.63;4951651;29;20046;-63
2021/04/03 01:25:01;;;;;;;18.33;7.10;;;;;;;4.36;66.34;100067.56;4990524;28;20126;-62
2021/04/03 01:27:26;;;;;;;13.02;6.75;;;;;;;4.31;68.75;100062.78;4991857;28;20074;-62
2021/04/03 01:29:54;;;;;;;15.02;7.28;;;;;;;4.35;66.94;100055.31;4993372;28;20034;-63
2021/04/03 01:32:30;;;;;;;15.05;6.70;;;;;;;4.30;70.61;100057.69;4992996;28;20041;-63
2021/04/03 01:34:57;;;;;;;18.65;7.47;;;;;;;4.25;67.76;100068.03;4976284;28;20026;-62
2021/04/03 01:37:23;;;;;;;12.27;7.45;;;;;;;4.23;68.80;100057.56;4975586;28;20035;-63
2021/04/03 01:39:51;;;;;;;16.05;8.02;;;;;;;4.18;69.40;100059.13;4976038;28;20160;-63
2021/04/03 01:42:22;;;;;;;16.38;8.25;;;;;;;4.19;69.66;100055.47;4975715;28;20038;-63
2021/04/03 01:44:52;;;;;;;19.33;8.50;;;;;;;4.14;70.09;100052.53;4976370;28;20060;-62
2021/04/03 01:47:22;;;;;;;15.68;8.10;;;;;;;4.22;69.98;100050.63;5009896;28;20564;-62
2021/04/03 01:49:49;;;;;;;14.98;8.52;;;;;;;4.30;70.42;100052.38;4963917;28;20488;-63
2021/04/03 01:52:16;;;;;;;17.35;8.50;;;;;;;4.34;70.93;100053.66;4963407;28;20068;-63
2021/04/03 01:54:41;;;;;;;22.90;9.88;;;;;;;4.19;70.36;100050.16;4996039;28;20110;-62
2021/04/03 01:57:07;;;;;;;20.73;10.70;;;;;;;4.22;70.67;100049.78;4963097;28;20050;-62
2021/04/03 01:59:32;;;;;;;19.85;10.70;;;;;;;4.17;71.04;100047.69;4995948;28;20070;-62
2021/04/03 02:01:58;;;;;;;16.67;9.75;;;;;;;4.13;71.14;100054.34;4996689;28;20050;-62
2021/04/03 02:04:23;;;;;;;18.33;10.00;;;;;;;4.31;71.07;100059.31;4995806;28;20030;-63
2021/04/03 02:06:49;;;;;;;18.13;9.48;;;;;;;4.17;71.05;100053.00;4995402;28;20046;-62
2021/04/03 02:09:15;;;;;;;22.15;10.30;;;;;;;4.22;71.68;100053.28;4995603;28;20047;-62
2021/04/03 02:11:47;;;;;;;22.80;11.02;;;;;;;4.27;71.00;100050.09;4995420;28;20050;-62
2021/04/03 02:14:13;;;;;;;28.60;10.70;;;;;;;4.25;70.47;100049.44;4995708;28;20030;-62
2021/04/03 02:16:38;;;;;;;20.10;10.73;;;;;;;4.29;73.00;100058.69;4995108;28;20250;-62
2021/04/03 02:19:09;;;;;;;26.17;10.68;;;;;;;4.21;72.20;100058.75;4996842;28;20045;-62
2021/04/03 02:21:35;;;;;;;20.20;10.02;;;;;;;4.24;71.56;100053.94;5009158;28;20048;-62
2021/04/03 02:24:02;;;;;;;17.75;10.38;;;;;;;4.25;71.20;100052.09;5016464;28;20026;-63
2021/04/03 02:26:31;;;;;;;22.60;10.23;;;;;;;4.19;71.14;100050.16;5015992;28;20041;-63
2021/04/03 02:28:56;;;;;;;24.63;11.15;;;;;;;4.10;71.84;100050.25;5016083;28;20037;-62
2021/04/03 02:31:21;;;;;;;18.23;10.40;;;;;;;4.11;72.06;100057.19;4998333;28;20038;-62
2021/04/03 02:33:47;;;;;;;21.95;10.70;;;;;;;4.13;71.99;100057.00;5016139;28;20365;-62
2021/04/03 02:36:12;;;;;;;20.90;10.15;;;;;;;4.11;71.77;100059.84;5015846;28;20042;-62
2021/04/03 02:38:38;;;;;;;26.77;11.10;;;;;;;4.08;71.83;100060.19;5016064;28;20460;-62
2021/04/03 02:41:07;;;;;;;20.38;10.18;;;;;;;4.11;72.32;100059.00;5014456;28;20118;-62
2021/04/03 02:44:04;;;;;;;19.80;9.82;;;;;;;4.15;71.42;100049.69;5014786;28;20028;-62
2021/04/03 02:46:35;;;;;;;26.25;10.60;;;;;;;4.13;70.74;100050.88;4980948;28;20460;-62
2021/04/03 02:49:03;;;;;;;18.17;9.02;;;;;;;4.13;71.17;100040.28;4998660;28;20523;-62
2021/04/03 02:51:32;;;;;;;17.90;9.07;;;;;;;4.01;71.07;100038.03;5014268;28;20042;-62
2021/04/03 02:53:57;;;;;;;18.73;8.93;;;;;;;4.13;71.21;100051.72;5014621;28;20030;-63
2021/04/03 02:56:23;;;;;;;17.33;8.20;;;;;;;4.01;71.11;100064.56;4997723;28;20108;-62
2021/04/03 02:58:48;;;;;;;18.13;7.82;;;;;;;4.06;70.67;100059.56;5013121;28;20041;-62
2021/04/03 03:01:14;;;;;;;16.92;7.90;;;;;;;4.02;70.97;100062.75;5014055;28;20050;-62
2021/04/03 03:03:39;;;;;;;14.40;7.50;;;;;;;4.09;69.87;100067.19;5015695;28;20041;-62
2021/04/03 03:06:05;;;;;;;13.05;6.10;;;;;;;4.04;69.07;100069.53;5013996;28;20112;-63
2021/04/03 03:08:30;;;;;;;22.02;6.25;;;;;;;4.05;68.50;100073.84;5014086;28;20030;-62
2021/04/03 03:10:56;;;;;;;14.48;6.00;;;;;;;4.05;68.79;100079.13;5013811;28;20038;-62
2021/04/03 03:13:21;;;;;;;19.13;6.05;;;;;;;4.01;67.53;100074.38;4997680;28;20022;-63
2021/04/03 03:15:46;;;;;;;19.98;6.18;;;;;;;3.97;67.66;100067.75;5013866;28;20050;-63
2021/04/03 03:18:12;;;;;;;15.38;5.38;;;;;;;3.95;67.83;100075.91;4997762;28;20102;-62
2021/04/03 03:20:38;;;;;;;19.45;6.25;;;;;;;3.94;67.95;100084.03;5013687;28;20056;-62
2021/04/03 03:23:06;;;;;;;17.45;6.05;;;;;;;3.88;67.77;100080.28;5014203;28;20511;-63
2021/04/03 03:25:31;;;;;;;16.58;5.53;;;;;;;4.05;70.91;100086.28;5014883;28;20042;-63
2021/04/03 03:27:57;;;;;;;17.50;5.63;;;;;;;3.93;67.91;100085.88;5015131;28;20018;-63
2021/04/03 03:30:22;;;;;;;18.52;6.30;;;;;;;3.78;68.19;100085.00;5013586;28;20045;-62
2021/04/03 03:32:48;;;;;;;22.33;6.30;;;;;;;3.75;68.57;100085.34;5014059;28;20026;-62
2021/04/03 03:35:14;;;;;;;20.13;6.63;;;;;;;3.84;68.38;100086.94;5014618;28;20161;-63
2021/04/03 03:37:39;;;;;;;19.40;6.10;;;;;;;3.81;68.49;100079.34;5013799;28;20014;-62
2021/04/03 03:40:05;;;;;;;21.45;6.80;;;;;;;3.76;68.71;100087.81;5013448;28;20368;-63
2021/04/03 03:42:31;;;;;;;20.90;6.57;;;;;;;3.75;68.96;100078.22;5013595;28;20021;-63
2021/04/03 03:44:56;;;;;;;23.98;6.40;;;;;;;3.85;68.74;100075.34;5013834;28;20101;-62
2021/04/03 03:47:22;;;;;;;16.95;6.32;;;;;;;3.72;68.67;100072.44;5014288;28;20034;-62
2021/04/03 03:49:47;;;;;;;23.88;6.32;;;;;;;3.77;68.74;100070.06;5014713;28;20392;-62
2021/04/03 03:52:12;;;;;;;20.42;6.35;;;;;;;3.84;68.82;100078.97;5014358;28;20041;-62
2021/04/03 03:54:38;;;;;;;20.50;7.18;;;;;;;3.66;69.12;100077.44;5013457;28;20044;-63
2021/04/03 03:57:04;;;;;;;23.83;7.60;;;;;;;3.64;69.05;100073.31;5014210;28;20045;-62
2021/04/03 03:59:30;;;;;;;20.48;7.43;;;;;;;3.70;69.06;100077.94;5014606;28;20036;-63
2021/04/03 04:01:55;;;;;;;29.70;8.38;;;;;;;3.64;69.26;100079.47;5014256;28;20034;-63
2021/04/03 04:04:21;;;;;;;28.60;8.43;;;;;;;3.67;69.64;100086.25;5014752;28;20026;-62
2021/04/03 04:06:46;;;;;;;28.88;9.32;;;;;;;3.64;69.21;100094.53;5012694;28;20515;-62
2021/04/03 04:09:11;;;;;;;24.75;9.05;;;;;;;3.68;69.61;100098.50;5012534;28;20104;-62
2021/04/03 04:11:37;;;;;;;24.13;9.30;;;;;;;3.73;70.75;100103.28;5014039;28;20084;-63
2021/04/03 04:14:03;;;;;;;18.90;8.57;;;;;;;3.65;69.36;100098.84;5014225;28;20388;-62
2021/04/03 04:16:28;;;;;;;19.80;8.40;;;;;;;3.63;69.74;100104.31;5013840;28;20049;-62
2021/04/03 04:18:53;;;;;;;20.38;8.77;;;;;;;3.63;69.48;100106.97;5012900;28;20033;-62
2021/04/03 04:21:19;;;;;;;23.73;8.20;;;;;;;3.65;69.87;100112.09;5013671;28;20038;-62
2021/04/03 04:23:45;;;;;;;24.92;10.10;;;;;;;3.62;69.79;100120.38;5014490;28;20026;-62
2021/04/03 04:26:11;;;;;;;23.98;9.35;;;;;;;3.63;69.70;100106.97;5012602;28;20408;-63
2021/04/03 04:28:36;;;;;;;26.88;8.57;;;;;;;3.57;69.83;100122.72;5014066;28;20492;-61
2021/04/03 04:31:02;;;;;;;27.50;10.38;;;;;;;3.63;69.91;100122.88;5013683;28;20049;-61
2021/04/03 04:33:28;;;;;;;26.55;9.93;;;;;;;3.68;69.86;100114.41;5014038;28;20100;-61
2021/04/03 04:35:54;;;;;;;23.48;10.38;;;;;;;3.63;70.07;100120.22;5013666;28;20046;-61
2021/04/03 04:38:19;;;;;;;27.95;10.30;;;;;;;3.61;73.35;100126.69;5012560;28;20048;-61
2021/04/03 04:40:44;;;;;;;27.00;10.20;;;;;;;3.64;70.74;100119.25;5013665;28;20496;-61
2021/04/03 04:43:11;;;;;;;24.50;10.15;;;;;;;3.65;69.62;100118.22;5013804;28;20030;-62
2021/04/03 04:45:36;;;;;;;30.98;10.93;;;;;;;3.54;70.02;100120.44;5013289;28;20096;-61
2021/04/03 04:48:01;;;;;;;27.40;8.88;;;;;;;3.62;69.24;100126.53;5013470;28;20033;-62
2021/04/03 04:50:27;;;;;;;23.02;8.00;;;;;;;3.57;69.27;100120.09;5013077;28;20042;-62
2021/04/03 04:52:52;;;;;;;20.55;8.13;;;;;;;3.58;69.27;100125.22;5013502;28;20034;-62
2021/04/03 04:55:18;;;;;;;25.67;8.93;;;;;;;3.59;70.00;100128.69;5013005;28;20042;-62
2021/04/03 04:57:43;;;;;;;27.17;10.45;;;;;;;3.54;69.68;100131.88;5012096;28;20030;-62
2021/04/03 05:00:09;;;;;;;22.75;8.88;;;;;;;3.56;69.66;100129.88;5011658;28;20029;-62
2021/04/03 05:02:35;;;;;;;19.83;8.85;;;;;;;3.62;69.19;100129.19;5012052;28;20029;-62
2021/04/03 05:05:00;;;;;;;28.02;8.73;;;;;;;3.56;70.20;100134.34;5011972;28;20034;-62
2021/04/03 05:07:25;;;;;;;26.17;9.85;;;;;;;3.54;70.41;100137.16;5012988;28;20049;-62
2021/04/03 05:09:51;;;;;;;25.65;10.00;;;;;;;3.62;69.86;100139.78;5011223;28;20120;-62
2021/04/03 05:12:16;;;;;;;27.38;10.50;;;;;;;3.65;70.33;100151.88;5011429;28;20370;-62
2021/04/03 05:14:42;;;;;;;24.17;9.00;;;;;;;3.67;69.17;100148.03;5013184;28;20021;-62
2021/04/03 05:17:07;;;;;;;19.33;8.68;;;;;;;3.52;69.26;100157.75;5012684;28;20045;-62
2021/04/03 05:19:33;;;;;;;20.75;7.63;;;;;;;3.53;69.23;100159.38;5013098;28;20176;-62
2021/04/03 05:21:58;;;;;;;17.42;8.25;;;;;;;3.51;69.37;100160.56;5010422;28;20515;-62
2021/04/03 05:24:23;;;;;;;19.67;7.85;;;;;;;3.50;69.11;100157.09;5012905;28;20037;-62
2021/04/03 05:26:49;;;;;;;17.98;7.00;;;;;;;3.48;69.13;100164.38;5012531;28;20037;-62
2021/04/03 05:29:14;;;;;;;17.10;6.68;;;;;;;3.58;69.27;100167.63;5012804;28;20033;-62
2021/04/03 05:31:40;;;;;;;22.38;6.72;;;;;;;3.53;68.87;100169.16;5012385;28;20057;-62
2021/04/03 05:34:05;;;;;;;11.75;4.82;;;;;;;3.40;65.93;100169.72;5012852;28;20029;-62
2021/04/03 05:36:31;;;;;;;16.58;4.28;;;;;;;3.37;64.62;100164.75;5012224;28;20061;-62
2021/04/03 05:38:56;;;;;;;13.93;3.20;;;;;;;3.24;64.11;100199.75;5012829;28;20141;-61
2021/04/03 05:41:21;;;;;;;12.23;3.33;;;;;;;3.31;64.07;100189.31;5012459;28;20050;-61
2021/04/03 05:43:47;;;;;;;12.13;2.95;;;;;;;3.28;62.98;100194.94;5012842;28;20030;-62
2021/04/03 05:46:14;;;;;;;15.75;2.55;;;;;;;3.30;63.27;100191.13;5011201;28;20164;-62
2021/04/03 05:48:39;;;;;;;14.43;3.38;;;;;;;3.28;64.41;100194.94;5011323;28;20117;-62
2021/04/03 05:51:05;;;;;;;8.82;3.00;;;;;;;3.43;63.04;100195.88;5011178;28;20053;-62
2021/04/03 05:53:30;;;;;;;17.45;3.17;;;;;;;3.43;64.85;100201.19;5011525;28;20468;-62
2021/04/03 05:55:56;;;;;;;9.77;2.72;;;;;;;3.65;62.64;100204.91;5012256;28;20042;-62
2021/04/03 05:58:22;;;;;;;9.73;2.42;;;;;;;3.51;63.59;100206.44;5012764;28;20053;-62
2021/04/03 06:00:48;;;;;;;14.52;2.65;;;;;;;3.20;63.59;100214.34;5010968;28;20411;-62
2021/04/03 06:03:14;;;;;;;12.07;3.25;;;;;;;3.30;63.55;100217.63;5011582;28;20029;-62
2021/04/03 06:05:40;;;;;;;13.38;3.58;;;;;;;3.34;63.81;100208.31;5012169;28;20042;-62
2021/04/03 06:08:05;;;;;;;11.50;3.55;;;;;;;3.27;64.23;100215.34;5011480;28;20026;-62
2021/04/03 06:10:31;;;;;;;19.02;3.90;;;;;;;3.24;63.65;100227.09;5011936;28;20046;-62
2021/04/03 06:12:56;;;;;;;17.55;3.88;;;;;;;3.33;64.21;100225.22;5012550;28;20088;-62
2021/04/03 06:15:24;;;;;;;17.65;5.25;;;;;;;3.42;64.63;100216.25;5012230;28;20049;-62
2021/04/03 06:17:53;;;;;;;17.02;4.50;;;;;;;3.48;64.50;100235.13;5012486;28;20476;-62
2021/04/03 06:20:30;;;;;;;11.00;4.00;;;;;;;3.70;64.19;100226.41;5010765;28;20036;-62
2021/04/03 06:22:55;;;;;;;17.90;4.43;;;;;;;4.52;64.04;100239.16;5011255;28;20028;-62
2021/04/03 06:25:21;;;;;;;17.17;4.00;;;;;;;4.72;61.37;100250.13;5010779;28;20451;-62
2021/04/03 06:27:46;;;;;;;12.88;3.67;;;;;;;4.97;60.15;100245.41;5012496;28;20361;-62
2021/04/03 06:30:29;;;;;;;16.27;3.58;;;;;;;6.17;57.28;100246.97;5010764;28;20038;-62
2021/04/03 06:32:54;;;;;;;11.25;3.75;;;;;;;6.33;55.03;100243.25;5013758;28;20033;-62
2021/04/03 06:35:23;;;;;;;10.32;3.42;;;;;;;6.48;53.14;100241.34;5015708;28;20154;-62
2021/04/03 06:37:49;;;;;;;14.23;3.75;;;;;;;9.49;44.86;100258.19;5014886;28;20044;-62
2021/04/03 06:40:15;;;;;;;12.77;3.15;;;;;;;7.99;48.32;100257.69;5014405;28;20030;-62
2021/04/03 06:42:49;;;;;;;13.00;3.88;;;;;;;10.34;42.20;100244.63;5015927;28;20053;-62
2021/04/03 06:45:34;;;;;;;11.27;3.58;;;;;;;10.84;39.63;100251.91;5015536;28;20069;-62
2021/04/03 06:48:01;;;;;;;8.98;3.20;;;;;;;9.51;43.14;100250.75;5014692;28;20392;-62
2021/04/03 06:50:29;;;;;;;13.02;4.25;;;;;;;10.15;42.22;100255.22;5015501;28;20125;-62
2021/04/03 06:52:55;;;;;;;16.98;3.72;;;;;;;10.42;41.97;100260.44;5014856;28;20422;-63
2021/04/03 06:55:22;;;;;;;12.27;3.78;;;;;;;10.82;41.26;100262.84;5015562;28;20073;-64
2021/04/03 06:57:47;;;;;;;15.50;4.57;;;;;;;11.33;38.72;100258.25;5015741;28;20105;-62
2021/04/03 07:00:15;;;;;;;16.13;6.00;;;;;;;10.76;39.63;100259.19;5014219;28;20109;-62
2021/04/03 07:02:55;;;;;;;16.83;3.90;;;;;;;11.69;38.59;100267.38;5015806;28;20072;-62
2021/04/03 07:05:21;;;;;;;10.10;3.10;;;;;;;11.79;36.89;100279.22;5015089;28;20504;-62
2021/04/03 07:07:47;;;;;;;9.90;3.78;;;;;;;13.02;36.24;100277.09;5015441;28;20030;-62
2021/04/03 07:10:13;;;;;;;14.45;3.60;;;;;;;10.63;39.51;100269.16;4997199;28;20040;-62
2021/04/03 07:12:39;;;;;;;11.77;3.40;;;;;;;10.83;39.15;100279.75;5015313;28;20408;-62
2021/04/03 07:15:06;;;;;;;14.52;3.65;;;;;;;10.40;40.01;100269.75;5013823;28;20052;-62
2021/04/03 07:17:32;;;;;;;11.10;3.33;;;;;;;9.43;41.79;100273.19;4997840;28;20040;-62
2021/04/03 07:19:57;;;;;;;12.60;4.45;;;;;;;9.53;40.90;100267.41;4997356;28;20105;-62
2021/04/03 07:22:23;;;;;;;15.30;3.92;;;;;;;10.66;38.64;100276.78;5013483;28;20451;-64
2021/04/03 07:24:48;;;;;;;9.52;2.65;;;;;;;9.94;41.35;100282.31;5011841;28;20056;-62
2021/04/03 07:27:14;;;;;;;15.68;3.47;;;;;;;7.98;45.21;100275.53;5010159;28;20042;-63
2021/04/03 07:29:50;;;;;;;9.95;2.83;;;;;;;7.22;47.58;100278.22;4994362;28;20089;-62
2021/04/03 07:32:48;;;;;;;10.75;3.17;;;;;;;6.77;49.26;100279.50;4994963;28;20034;-63
2021/04/03 07:35:18;;;;;;;15.30;3.42;;;;;;;9.46;44.48;100291.53;4993701;28;20865;-62
2021/04/03 07:37:43;;;;;;;10.43;3.13;;;;;;;7.30;46.70;100285.25;4994038;28;20473;-61
2021/04/03 07:40:35;;;;;;;11.35;3.55;;;;;;;7.31;48.63;100287.72;4993578;28;20046;-62
2021/04/03 07:43:00;;;;;;;12.88;3.40;;;;;;;7.68;45.76;100292.84;4995306;28;20169;-63
2021/04/03 07:45:41;;;;;;;9.07;3.13;;;;;;;10.39;40.33;100289.56;4993982;28;20496;-63
2021/04/03 07:48:14;;;;;;;14.15;3.17;;;;;;;10.27;39.09;100286.69;4995241;28;20096;-61
2021/04/03 07:50:40;;;;;;;12.57;2.90;;;;;;;10.83;37.88;100293.16;4994871;28;20145;-61
2021/04/03 07:53:06;;;;;;;9.73;3.00;;;;;;;11.20;37.98;100294.91;4995019;28;20485;-62
2021/04/03 07:55:36;;;;;;;13.48;2.67;;;;;;;10.70;38.73;100276.13;4994731;28;20054;-62
2021/04/03 07:58:27;;;;;;;8.43;2.80;;;;;;;8.70;43.05;100291.97;4993662;28;20026;-62
2021/04/03 08:00:52;;;;;;;11.45;3.28;;;;;;;8.27;43.63;100296.78;4994507;28;20070;-61
2021/04/03 08:03:25;;;;;;;10.95;3.28;;;;;;;8.40;43.46;100295.00;5009930;28;20030;-61
2021/04/03 08:05:57;;;;;;;13.27;3.60;;;;;;;7.99;43.75;100295.88;4994334;28;20046;-62
2021/04/03 08:08:22;;;;;;;14.63;3.20;;;;;;;7.47;44.36;100297.25;4994680;28;20149;-62
2021/04/03 08:10:48;;;;;;;11.45;3.30;;;;;;;7.84;43.93;100303.19;4994116;28;20046;-62
2021/04/03 08:13:17;;;;;;;8.63;3.25;;;;;;;7.36;44.42;100311.13;4994673;28;20038;-61
2021/04/03 08:15:43;;;;;;;11.70;3.50;;;;;;;7.40;45.21;100309.72;4994287;28;20434;-62
2021/04/03 08:18:09;;;;;;;14.85;3.42;;;;;;;8.88;41.23;100315.41;5009679;28;20042;-62
2021/04/03 08:20:35;;;;;;;10.13;3.05;;;;;;;9.80;40.93;100318.19;4999633;28;20381;-62
2021/04/03 08:23:05;;;;;;;11.85;3.00;;;;;;;9.64;39.32;100314.13;5014059;28;20028;-62
2021/04/03 08:25:30;;;;;;;9.48;3.17;;;;;;;8.61;41.76;100322.56;5012183;28;20048;-63
2021/04/03 08:27:57;;;;;;;13.45;3.10;;;;;;;9.69;41.71;100331.22;4996244;28;20026;-62
2021/04/03 08:30:30;;;;;;;12.90;3.10;;;;;;;10.37;38.43;100324.59;5013666;28;20041;-61
2021/04/03 08:33:11;;;;;;;9.95;2.95;;;;;;;10.31;39.00;100334.31;5012503;28;20026;-62
2021/04/03 08:35:37;;;;;;;10.82;3.10;;;;;;;9.86;38.00;100339.63;5012142;28;20107;-62
2021/04/03 08:38:12;;;;;;;10.10;3.58;;;;;;;10.29;37.85;100333.72;5013765;28;20025;-62
2021/04/03 08:40:38;;;;;;;11.98;3.05;;;;;;;10.27;38.21;100332.25;5012078;28;20045;-62
2021/04/03 08:43:03;;;;;;;11.73;2.90;;;;;;;9.82;38.17;100342.91;5013798;28;20125;-62
2021/04/03 08:45:39;;;;;;;10.07;3.20;;;;;;;10.92;36.56;100343.63;5013262;28;20037;-62
2021/04/03 08:48:08;;;;;;;8.63;2.90;;;;;;;10.60;37.33;100342.00;5013624;28;20052;-62
2021/04/03 08:50:34;;;;;;;9.68;2.67;;;;;;;11.26;35.96;100344.22;5013208;28;20142;-62
2021/04/03 08:53:00;;;;;;;9.65;3.00;;;;;;;11.97;34.78;100350.16;5012297;28;20135;-62
2021/04/03 08:55:26;;;;;;;9.05;3.08;;;;;;;11.91;34.35;100351.06;5013182;28;20038;-62
2021/04/03 08:57:51;;;;;;;10.02;2.88;;;;;;;11.55;34.99;100347.25;5013521;28;20049;-62
2021/04/03 09:00:19;;;;;;;12.25;3.53;;;;;;;11.14;35.65;100352.16;4995445;28;20030;-62
2021/04/03 09:02:45;;;;;;;10.95;2.88;;;;;;;10.95;36.69;100353.91;5012005;28;20022;-62
2021/04/03 09:05:11;;;;;;;10.75;3.00;;;;;;;11.04;35.50;100359.84;5011838;28;20025;-62
2021/04/03 09:07:37;;;;;;;10.32;3.15;;;;;;;9.77;37.90;100358.78;5012260;28;20034;-62
2021/04/03 09:10:14;;;;;;;24.77;4.07;;;;;;;9.67;38.73;100357.34;5012683;28;20065;-62
2021/04/03 09:12:39;;;;;;;18.92;3.58;;;;;;;10.18;37.14;100362.97;5013302;28;20161;-62
2021/04/03 09:15:08;;;;;;;11.75;3.05;;;;;;;10.30;36.12;100358.63;5012645;28;20069;-62
2021/04/03 09:17:34;;;;;;;15.35;3.20;;;;;;;9.21;38.80;100370.75;5013435;28;20030;-61
2021/04/03 09:20:10;;;;;;;13.88;3.10;;;;;;;10.80;36.87;100366.81;5012884;28;20095;-62
2021/04/03 09:22:37;;;;;;;9.77;3.08;;;;;;;10.10;38.19;100366.72;5012469;28;20369;-62
2021/04/03 09:25:07;;;;;;;10.15;2.83;;;;;;;11.63;34.90;100361.22;5011471;28;20026;-62
2021/04/03 09:27:32;;;;;;;12.25;3.13;;;;;;;12.19;34.05;100372.81;5013018;28;20026;-62
2021/04/03 09:30:05;;;;;;;12.68;3.22;;;;;;;11.58;35.44;100368.28;5012043;28;20037;-62
2021/04/03 09:32:43;;;;;;;8.82;2.92;;;;;;;12.28;33.88;100376.00;5012772;28;20038;-62
2021/04/03 09:35:10;;;;;;;10.25;3.40;;;;;;;12.19;33.56;100370.13;5012678;28;20045;-62
2021/04/03 09:37:35;;;;;;;9.75;3.33;;;;;;;11.39;35.39;100370.13;5011925;28;20376;-62
2021/04/03 09:40:01;;;;;;;11.25;3.00;;;;;;;11.18;35.66;100368.63;5012471;28;20030;-63
2021/04/03 09:42:27;;;;;;;14.57;3.10;;;;;;;9.65;38.16;100370.13;5012903;28;20022;-64
2021/04/03 09:44:59;;;;;;;14.35;3.13;;;;;;;11.23;35.64;100361.56;4995228;28;20061;-63
2021/04/03 09:47:25;;;;;;;10.15;3.42;;;;;;;10.67;37.30;100369.59;5012462;28;20096;-62
2021/04/03 09:49:51;;;;;;;10.63;3.15;;;;;;;10.93;36.59;100361.38;5012960;28;20396;-63
2021/04/03 09:52:17;;;;;;;11.57;2.85;;;;;;;11.59;37.13;100364.56;5012489;28;20038;-64
2021/04/03 09:54:45;;;;;;;14.80;3.33;;;;;;;11.74;35.38;100373.09;5012659;28;20029;-61
2021/04/03 09:57:11;;;;;;;8.07;3.00;;;;;;;9.08;41.02;100368.91;5012482;28;20038;-64
2021/04/03 09:59:38;;;;;;;11.93;3.30;;;;;;;9.80;38.96;100372.56;5012688;28;20468;-63
2021/04/03 10:02:04;;;;;;;13.32;3.53;;;;;;;10.58;38.10;100363.66;5010980;28;20041;-63
2021/04/03 10:04:31;;;;;;;13.57;3.35;;;;;;;12.20;34.92;100370.94;5012687;28;20048;-63
2021/04/03 10:06:56;;;;;;;11.02;3.20;;;;;;;12.04;34.74;100367.00;5011058;28;20385;-63
2021/04/03 10:09:21;;;;;;;13.15;2.92;;;;;;;11.04;36.61;100351.81;5016000;28;20111;-62
2021/04/03 10:11:51;;;;;;;15.38;3.72;;;;;;;12.23;34.98;100368.66;5014827;28;20065;-62
2021/04/03 10:14:16;;;;;;;9.45;3.10;;;;;;;12.17;34.76;100366.84;5015416;28;20034;-63
2021/04/03 10:16:41;;;;;;;12.32;3.20;;;;;;;11.66;35.23;100362.63;5016144;28;20503;-63
2021/04/03 10:19:08;;;;;;;10.63;3.15;;;;;;;11.13;35.96;100365.75;5016417;28;20503;-63
2021/04/03 10:21:33;;;;;;;14.93;3.83;;;;;;;10.39;38.32;100365.41;5015801;28;20504;-62
2021/04/03 10:23:58;;;;;;;12.13;3.58;;;;;;;10.81;37.22;100368.47;5016280;28;20030;-63
2021/04/03 10:26:24;;;;;;;12.40;3.13;;;;;;;11.77;36.63;100361.06;5015967;28;20069;-62
2021/04/03 10:28:49;;;;;;;11.82;3.17;;;;;;;11.33;35.78;100354.88;5016204;28;20026;-63
2021/04/03 10:31:16;;;;;;;9.90;3.17;;;;;;;10.83;37.80;100362.88;5014341;28;20081;-63
2021/04/03 10:33:42;;;;;;;10.88;3.30;;;;;;;11.65;35.43;100363.66;5016094;28;20468;-62
2021/04/03 10:36:09;;;;;;;11.15;3.53;;;;;;;11.99;35.30;100359.63;5015756;28;20057;-63
2021/04/03 10:38:35;;;;;;;14.10;3.80;;;;;;;10.67;37.46;100350.81;5016098;28;20106;-63
2021/04/03 10:41:00;;;;;;;16.67;4.10;;;;;;;11.75;36.73;100345.16;5015607;28;20038;-62
2021/04/03 10:43:26;;;;;;;9.45;3.30;;;;;;;10.76;37.50;100344.19;5015839;28;20022;-62
2021/04/03 10:45:51;;;;;;;9.85;3.20;;;;;;;11.49;37.47;100350.81;5014284;28;20029;-63
2021/04/03 10:48:17;;;;;;;10.23;3.90;;;;;;;12.27;35.25;100351.00;5015636;28;20017;-63
2021/04/03 10:50:43;;;;;;;10.05;3.50;;;;;;;10.72;36.86;100351.00;5015299;28;20038;-63
2021/04/03 10:53:08;;;;;;;11.05;3.30;;;;;;;11.48;36.98;100343.78;5016025;28;20025;-63
2021/04/03 10:55:34;;;;;;;13.38;3.95;;;;;;;12.91;35.06;100348.69;5015521;28;20104;-63
2021/04/03 10:57:59;;;;;;;11.95;3.80;;;;;;;9.76;38.78;100347.25;5014436;28;20026;-63
2021/04/03 11:00:25;;;;;;;11.43;3.75;;;;;;;10.51;37.07;100339.56;5015353;28;20038;-63
2021/04/03 11:02:51;;;;;;;10.82;3.53;;;;;;;12.09;36.86;100348.34;5015709;28;20018;-63
2021/04/03 11:05:16;;;;;;;17.27;3.78;;;;;;;12.79;35.15;100347.81;5014056;28;20018;-63
2021/04/03 11:07:42;;;;;;;13.23;3.97;;;;;;;12.73;34.32;100346.06;5015894;28;20021;-63
2021/04/03 11:10:08;;;;;;;13.40;4.05;;;;;;;12.85;33.22;100346.91;5015117;28;20396;-63
2021/04/03 11:12:33;;;;;;;11.07;3.58;;;;;;;12.24;34.30;100340.72;5015551;28;20476;-63
2021/04/03 11:14:59;;;;;;;12.80;3.92;;;;;;;12.59;35.34;100331.97;5015619;28;20076;-63
2021/04/03 11:17:24;;;;;;;16.67;3.42;;;;;;;11.89;34.87;100320.91;5013812;28;20049;-63
2021/04/03 11:19:50;;;;;;;10.15;3.33;;;;;;;10.80;36.00;100331.97;5014214;28;20021;-63
2021/04/03 11:22:15;;;;;;;10.65;4.00;;;;;;;12.25;35.13;100331.59;5014716;28;20049;-63